CST,Max TemperatureF,Mean TemperatureF,Min TemperatureF,Max Dew PointF,MeanDew PointF,Min DewpointF,Max Humidity, Mean Humidity, Min Humidity, Max Sea Level PressureIn, Mean Sea Level PressureIn, Min Sea Level PressureIn, Max VisibilityMiles, Mean VisibilityMiles, Min VisibilityMiles, Max Wind SpeedMPH, Mean Wind SpeedMPH, Max Gust SpeedMPH,PrecipitationIn, CloudCover, Events, WindDirDegrees
2013-1-1,15,0,-16,14,0,-20,93,87,79,30.19,30.02,29.84,10,8,2,21,9,25,0.00,5,Snow,197
2013-1-2,21,12,3,19,10,1,100,90,79,30.16,29.92,29.80,10,6,2,20,13,22,0.00,8,Snow,255
2013-1-3,15,3,-9,12,2,-15,93,87,77,30.22,30.08,29.89,10,9,3,22,10,28,0.00,4,Snow,215
2013-1-4,24,12,0,16,5,-4,92,81,59,30.07,30.01,29.90,10,10,10,10,6,,0.00,0,,197
2013-1-5,24,11,-2,18,5,-6,93,84,74,30.06,29.97,29.90,10,10,10,16,2,,0.00,1,,336
2013-1-6,23,14,5,16,10,1,93,87,74,30.14,30.02,29.71,10,9,4,22,4,31,0.00,6,Snow,178
2013-1-7,35,22,8,23,16,7,100,82,56,29.88,29.75,29.66,10,10,10,23,15,30,0.00,1,,216
2013-1-8,33,20,8,30,18,7,93,86,60,29.86,29.74,29.61,10,10,1,20,8,21,0.00,3,Snow,173
2013-1-9,28,24,19,23,17,12,86,78,64,30.22,30.03,29.70,10,10,2,28,16,34,0.00,5,Snow,227
2013-1-10,46,35,24,32,25,18,93,64,39,30.04,29.81,29.56,10,9,5,37,18,47,0.07,2,Rain-Snow,165
2013-1-11,33,24,14,34,28,10,100,97,86,29.57,29.46,29.38,10,3,1,22,5,26,0.13,8,Snow,2
2013-1-12,12,2,-9,10,-4,-13,92,82,72,30.10,29.81,29.40,10,6,1,20,15,28,0.00,6,Snow,313
2013-1-13,3,-6,-14,-2,-10,-18,92,81,71,30.18,30.10,30.06,10,10,5,12,5,,0.00,4,Snow,268
2013-1-14,10,2,-5,1,-3,-9,92,81,67,30.27,30.21,30.14,10,9,3,16,7,,0.00,5,Snow,205
2013-1-15,19,10,1,18,7,-2,93,80,67,30.13,29.88,29.50,10,8,1,26,15,34,0.00,3,Snow,190
2013-1-16,26,10,-7,25,0,-17,100,74,48,30.26,29.90,29.49,10,9,2,24,14,28,0.00,5,Snow,313
2013-1-17,12,2,-7,1,-6,-15,85,72,52,30.34,30.27,30.12,10,8,4,10,3,,0.00,5,Snow,226
2013-1-18,24,14,5,21,13,0,93,87,74,30.11,29.79,29.68,10,8,1,10,5,,0.05,8,Snow,138
2013-1-19,24,6,-11,21,2,-17,100,84,72,30.27,29.90,29.60,10,4,1,29,11,43,0.00,7,Snow,294
2013-1-20,-2,-9,-16,-9,-16,-24,92,76,60,30.30,30.28,30.25,10,6,1,18,8,25,0.00,5,Snow,288
2013-1-21,-7,-16,-25,-20,-25,-31,83,71,54,30.26,30.23,30.21,10,9,2,13,7,,0.00,1,,271
2013-1-22,-2,-14,-25,-8,-19,-33,92,76,60,30.27,30.21,30.12,10,10,10,13,4,,0.00,1,,197
2013-1-23,1,-11,-23,0,-16,-29,92,71,50,30.60,30.33,30.08,10,8,0,22,9,28,0.00,3,Snow,309
2013-1-24,3,-8,-20,0,-14,-27,85,71,60,30.59,30.33,29.93,10,9,2,23,6,26,0.00,4,Snow,146
2013-1-25,8,-3,-14,7,-7,-20,92,78,61,30.28,30.07,29.83,10,6,1,22,14,29,0.00,4,Snow,278
2013-1-26,19,2,-16,10,-2,-20,85,74,53,30.27,30.11,30.01,10,10,4,15,5,18,0.00,4,,152
2013-1-27,30,19,8,23,13,3,93,80,64,30.01,29.87,29.78,10,10,10,7,2,,0.00,2,,114
2013-1-28,30,26,23,28,25,21,100,92,80,29.80,29.76,29.68,10,3,0,12,2,,0.27,8,Snow,202
2013-1-29,23,16,8,21,16,7,100,93,85,29.89,29.74,29.62,10,4,0,14,6,20,0.03,8,Fog-Snow,320
2013-1-30,8,2,-5,5,-2,-9,92,82,67,29.87,29.81,29.77,10,6,2,16,12,21,0.00,8,Snow,317
2013-1-31,-7,-18,-29,-11,-19,-36,84,73,59,30.22,30.06,29.83,10,4,1,18,12,23,0.00,7,Snow,307